Latest Weather Observations for Bushy Park

IDT60801

Issued at 12:02 pm EST Friday 29 May 2015 (issued every 30 minutes, with the page automatically refreshed every 10 minutes)

About weather observations | Map of weather stations | Latest weather observations for TAS | Other Formats
Station Details ID: 095003 Name: BUSHY PARK (BUSHY PARK ESTATES) Lat: -42.71 Lon: 146.90 Height: 27.0 m
Data from the previous 72 hours. | See also: Recent months at Bushy Park
Date/Time
EST
Temp
°C
App
Temp
°C
Dew
Point
Rel
Hum
%
Delta-T
°C
Wind Press
QNH
hPa
Press
MSL
hPa
Rain
since 9 am
mm
Dir
 
Spd
km/h
Gust
km/h
Spd
kts
Gust
kts
29/12:00pm 11.2 7.1 2.2 54 3.9 NW 13 22 7 12 - - 0.2
29/11:30am 11.6 7.9 2.1 52 4.1 WNW 11 17 6 9 - - 0.2
29/11:00am 11.4 6.0 2.2 53 3.9 N 20 33 11 18 - - 0.2
29/10:30am 10.4 4.2 2.3 57 3.4 N 24 33 13 18 - - 0.2
29/10:00am 10.2 4.0 2.3 58 3.4 N 24 35 13 19 - - 0.2
29/09:30am 8.9 2.9 3.4 68 2.4 N 24 35 13 19 - - 0.2
29/09:00am 7.5 0.6 2.8 72 2.0 N 28 39 15 21 - - 5.6
29/08:30am 6.2 0.9 2.9 79 1.4 N 20 28 11 15 - - 5.6
29/08:00am 5.1 1.0 2.2 81 1.2 NNW 13 19 7 10 - - 5.6
29/07:30am 4.1 0.0 2.1 87 0.8 NNE 13 17 7 9 - - 5.6
29/07:00am 4.7 -0.6 1.7 81 1.2 NNE 19 28 10 15 - - 5.6
29/06:30am 4.4 1.1 2.4 87 0.8 NNE 9 17 5 9 - - 5.6
29/06:00am 4.7 0.7 2.8 87 0.8 NNE 13 24 7 13 - - 5.6
29/05:30am 4.4 1.5 2.4 87 0.8 E 7 11 4 6 - - 5.6
29/05:00am 4.5 1.2 2.3 86 0.9 W 9 19 5 10 - - 5.6
29/04:30am 5.3 -2.1 1.6 77 1.5 NNW 30 50 16 27 - - 5.6
29/04:22am 5.8 -3.4 1.3 73 1.8 NNW 39 57 21 31 - - 5.6
29/04:13am 5.9 -4.6 1.4 73 1.8 NW 46 57 25 31 - - 5.6
29/04:02am 5.3 -1.5 2.9 84 1.0 W 28 59 15 32 - - 5.6
29/04:00am 5.0 -0.5 4.1 94 0.4 W 22 39 12 21 - - 5.6
29/03:30am 4.8 2.2 4.1 95 0.3 NNE 7 11 4 6 - - 4.6
29/03:00am 4.8 2.1 3.9 94 0.4 NE 7 13 4 7 - - 4.0
29/02:30am 5.2 1.8 4.0 92 0.5 N 11 15 6 8 - - 4.0
29/02:00am 6.1 1.0 4.0 86 0.9 NNW 20 28 11 15 - - 4.0
29/01:30am 6.3 2.6 4.2 86 0.9 SW 13 20 7 11 - - 2.2
29/01:00am 6.3 2.2 4.2 86 0.9 N 15 19 8 10 - - 2.0
29/12:30am 6.8 1.9 4.0 82 1.2 NNW 19 30 10 16 - - 1.8
29/12:00am 7.2 4.0 3.0 74 1.8 W 9 26 5 14 - - 0.8
 
Date/Time
EST
Temp
°C
App
Temp
°C
Dew
Point
Rel
Hum
%
Delta-T
°C
Wind Press
QNH
hPa
Press
MSL
hPa
Rain
since 9 am
mm
Dir
 
Spd
km/h
Gust
km/h
Spd
kts
Gust
kts
28/11:30pm 6.4 3.5 2.8 78 1.5 NNE 7 13 4 7 - - 0.6
28/11:00pm 7.8 3.0 2.6 69 2.2 NNW 17 28 9 15 - - 0.6
28/10:30pm 8.0 3.5 4.1 76 1.7 N 17 24 9 13 - - 0.6
28/10:00pm 8.6 3.5 4.3 74 1.9 N 20 30 11 16 - - 0.6
28/09:30pm 7.8 3.7 4.2 78 1.6 N 15 19 8 10 - - 0.6
28/09:00pm 8.4 5.2 5.3 81 1.4 NNW 11 13 6 7 - - 0.6
28/08:30pm 9.2 6.3 4.8 74 2.0 NNW 9 15 5 8 - - 0.6
28/08:00pm 9.1 6.9 6.3 83 1.3 NNW 7 11 4 6 - - 0.6
28/07:30pm 9.5 4.4 5.8 78 1.7 N 22 32 12 17 - - 0.6
28/07:00pm 9.8 5.0 5.5 74 2.0 N 20 28 11 15 - - 0.6
28/06:30pm 9.0 5.8 6.9 87 1.0 N 13 17 7 9 - - 0.6
28/06:00pm 9.4 7.5 7.5 88 0.9 NNE 7 11 4 6 - - 0.6
28/05:30pm 10.9 7.8 7.2 78 1.8 W 13 19 7 10 - - 0.6
28/05:00pm 11.5 6.8 6.2 70 2.5 NW 20 30 11 16 - - 0.4
28/04:30pm 12.3 7.6 6.0 65 3.0 NW 20 39 11 21 - - 0.2
28/04:03pm 14.2 7.7 4.6 52 4.4 WNW 28 50 15 27 - - 0.2
28/04:00pm 14.7 8.9 4.4 50 4.8 WNW 24 39 13 21 - - 0.2
28/03:38pm 15.0 8.4 4.3 48 5.0 N 28 46 15 25 - - 0.2
28/03:30pm 14.6 9.4 5.4 54 4.3 NNW 22 37 12 20 - - 0.2
28/03:00pm 15.2 10.2 6.4 55 4.3 N 22 32 12 17 - - 0.2
28/02:30pm 15.8 11.0 7.4 57 4.2 N 22 28 12 15 - - 0.2
28/02:00pm 15.9 13.3 7.6 58 4.1 N 11 15 6 8 - - 0.2
28/01:30pm 13.6 9.1 7.1 65 3.2 NW 20 32 11 17 - - 0.0
28/01:00pm 15.0 7.5 6.2 55 4.2 NNW 35 54 19 29 - - 0.0
28/12:59pm 15.0 7.9 6.4 56 4.2 NNW 33 54 18 29 - - 0.0
28/12:30pm 15.6 10.2 6.4 54 4.5 N 24 32 13 17 - - 0.0
28/12:00pm 16.8 10.7 6.8 51 4.9 N 28 39 15 21 - - 0.0
28/11:30am 16.4 9.5 6.5 52 4.9 N 32 41 17 22 - - 0.0
28/11:00am 16.0 10.2 6.2 52 4.8 N 26 35 14 19 - - 0.0
28/10:30am 13.7 10.2 7.2 65 3.2 N 15 20 8 11 - - 0.0
28/10:00am 14.1 11.7 8.6 69 2.8 N 11 15 6 8 - - 0.0
28/09:58am 13.8 11.3 8.0 68 2.9 N 11 13 6 7 - - 0.0
28/09:30am 8.7 4.6 6.3 85 1.1 N 17 20 9 11 - - 0.0
28/09:00am 6.8 3.6 5.2 89 0.7 N 11 13 6 7 - - 0.0
28/08:30am 5.5 1.5 4.8 95 0.3 NNW 15 17 8 9 - - 0.0
28/08:00am 3.3 -0.7 2.6 95 0.3 NNW 13 15 7 8 - - 0.0
28/07:30am 3.7 -0.6 3.0 95 0.3 N 15 17 8 9 - - 0.0
28/07:00am 3.6 -0.8 2.9 95 0.3 N 15 19 8 10 - - 0.0
28/06:30am 4.3 0.4 3.3 93 0.4 NNW 13 17 7 9 - - 0.0
28/06:00am 5.5 1.8 4.6 94 0.4 NNW 13 17 7 9 - - 0.0
28/05:30am 5.6 0.7 4.2 91 0.6 N 19 22 10 12 - - 0.0
28/05:00am 6.2 1.8 4.8 91 0.6 NNW 17 20 9 11 - - 0.0
28/04:30am 7.1 3.2 5.5 89 0.7 NNW 15 17 8 9 - - 0.0
28/04:00am 5.8 2.3 5.3 97 0.2 NNW 13 19 7 10 - - 0.0
28/03:30am 5.4 2.1 4.7 95 0.3 N 11 15 6 8 - - 0.0
28/03:00am 5.1 2.1 4.2 94 0.4 N 9 11 5 6 - - 0.0
28/02:30am 6.0 3.8 5.1 94 0.4 ENE 6 9 3 5 - - 0.0
28/02:00am 6.0 4.5 4.9 93 0.5 ENE 2 7 1 4 - - 0.0
28/01:30am 7.2 5.5 6.1 93 0.5 ENE 4 9 2 5 - - 0.0
28/01:00am 6.6 4.3 5.7 94 0.4 S 7 9 4 5 - - 0.0
28/12:30am 6.4 4.0 5.3 93 0.5 WNW 7 9 4 5 - - 0.0
28/12:00am 6.9 4.8 5.8 93 0.5 NNE 6 11 3 6 - - 0.0
 
Date/Time
EST
Temp
°C
App
Temp
°C
Dew
Point
Rel
Hum
%
Delta-T
°C
Wind Press
QNH
hPa
Press
MSL
hPa
Rain
since 9 am
mm
Dir
 
Spd
km/h
Gust
km/h
Spd
kts
Gust
kts
27/11:30pm 7.4 5.3 6.5 94 0.4 ENE 7 13 4 7 - - 0.0
27/11:00pm 7.3 4.4 6.4 94 0.4 N 11 13 6 7 - - 0.0
27/10:30pm 6.7 5.0 5.8 94 0.4 NNE 4 9 2 5 - - 0.0
27/10:00pm 6.4 4.7 5.7 95 0.3 N 4 7 2 4 - - 0.0
27/09:30pm 5.9 4.8 5.2 95 0.3 CALM 0 0 0 0 - - 0.0
27/09:00pm 5.6 4.5 4.9 95 0.3 CALM 0 0 0 0 - - 0.0
27/08:30pm 5.2 4.0 4.5 95 0.3 CALM 0 0 0 0 - - 0.0
27/08:00pm 5.3 2.8 4.6 95 0.3 SSE 7 13 4 7 - - 0.0
27/07:30pm 5.8 4.7 4.9 94 0.4 CALM 0 0 0 0 - - 0.0
27/07:00pm 6.2 5.2 5.5 95 0.3 CALM 0 0 0 0 - - 0.0
27/06:30pm 7.0 6.1 5.9 93 0.5 CALM 0 7 0 4 - - 0.0
27/06:00pm 8.4 6.3 6.7 89 0.8 N 7 9 4 5 - - 0.0
27/05:30pm 8.9 6.9 6.3 84 1.2 NW 6 9 3 5 - - 0.0
27/05:00pm 9.2 7.7 6.9 85 1.1 N 4 6 2 3 - - 0.0
27/04:30pm 9.9 7.5 7.0 82 1.4 N 9 9 5 5 - - 0.0
27/04:00pm 10.6 9.8 6.6 76 1.9 CALM 0 0 0 0 - - 0.0
27/03:30pm 10.6 8.6 6.4 75 2.0 ESE 6 9 3 5 - - 0.0
27/03:00pm 10.9 8.7 6.2 73 2.2 N 7 9 4 5 - - 0.0
27/02:30pm 10.5 8.3 6.3 75 2.0 NNE 7 11 4 6 - - 0.0
27/02:00pm 8.5 7.6 5.9 84 1.2 CALM 0 6 0 3 - - 0.0
27/01:30pm 8.1 5.8 5.7 85 1.1 N 7 9 4 5 - - 0.0
27/01:00pm 7.5 5.3 5.5 87 0.9 NE 6 9 3 5 - - 0.0
27/12:30pm 7.2 5.0 5.4 88 0.8 NNE 6 9 3 5 - - 0.0
27/12:00pm 7.0 4.6 5.2 88 0.8 N 7 9 4 5 - - 0.0
27/11:30am 5.7 4.6 5.0 95 0.3 CALM 0 0 0 0 - - 0.0
27/11:00am 5.5 3.0 4.8 95 0.3 N 7 9 4 5 - - 0.0
27/10:30am 5.1 2.6 4.9 99 0.1 NNE 7 9 4 5 - - 0.0
27/10:00am 4.9 3.3 4.4 97 0.2 NNE 2 7 1 4 - - 0.0
27/09:30am 4.4 3.1 4.2 99 0.1 CALM 0 0 0 0 - - 0.0
27/09:00am 4.4 - - - - CALM 0 0 0 0 - - 0.0
27/08:30am 3.9 2.5 3.7 99 0.1 CALM 0 0 0 0 - - 0.0
27/08:00am 3.6 2.2 3.4 99 0.1 CALM 0 0 0 0 - - 0.0
27/07:30am 3.3 1.8 3.1 99 0.1 CALM 0 0 0 0 - - 0.0
27/07:00am 3.2 0.6 3.0 99 0.1 NNE 6 7 3 4 - - 0.0
27/06:30am 3.0 0.3 2.8 99 0.1 WNW 6 7 3 4 - - 0.0
27/06:00am 2.8 1.2 2.3 96 0.2 CALM 0 0 0 0 - - 0.0
27/05:30am 2.5 0.8 2.0 96 0.2 CALM 0 0 0 0 - - 0.0
27/05:00am 1.6 -1.5 1.3 98 0.1 N 7 9 4 5 - - 0.0
27/04:30am 1.4 -0.4 0.9 96 0.2 CALM 0 0 0 0 - - 0.0
27/04:00am 1.3 -0.6 0.8 96 0.2 CALM 0 0 0 0 - - 0.0
27/03:30am 1.4 -1.6 1.1 98 0.1 N 6 7 3 4 - - 0.0
27/03:00am 1.6 -0.2 1.1 96 0.2 CALM 0 0 0 0 - - 0.0
27/02:30am 1.6 -1.0 1.1 96 0.2 NW 4 7 2 4 - - 0.0
27/02:00am 1.4 -1.6 0.9 96 0.2 NW 6 7 3 4 - - 0.0
27/01:30am 1.3 -1.9 0.8 96 0.2 N 7 9 4 5 - - 0.0
27/01:00am 1.6 -1.0 1.1 96 0.2 N 4 7 2 4 - - 0.0
27/12:30am 1.8 -1.1 1.3 96 0.2 WSW 6 9 3 5 - - 0.0
27/12:00am 2.2 0.4 1.2 93 0.4 CALM 0 0 0 0 - - 0.0
 
Date/Time
EST
Temp
°C
App
Temp
°C
Dew
Point
Rel
Hum
%
Delta-T
°C
Wind Press
QNH
hPa
Press
MSL
hPa
Rain
since 9 am
mm
Dir
 
Spd
km/h
Gust
km/h
Spd
kts
Gust
kts
26/11:30pm 2.4 -0.7 1.6 94 0.3 S 7 9 4 5 - - 0.0
26/11:00pm 2.6 0.9 2.1 96 0.2 CALM 0 0 0 0 - - 0.0
26/10:30pm 2.9 1.2 2.1 94 0.3 CALM 0 0 0 0 - - 0.0
26/10:00pm 3.7 2.2 3.2 97 0.2 CALM 0 0 0 0 - - 0.0
26/09:30pm 3.8 1.1 2.8 93 0.4 SW 6 9 3 5 - - 0.0
26/09:00pm 4.7 2.0 3.8 94 0.4 N 7 7 4 4 - - 0.0
26/08:30pm 5.3 3.7 4.4 94 0.4 ENE 2 7 1 4 - - 0.0
26/08:00pm 6.4 4.9 5.0 91 0.6 ESE 2 7 1 4 - - 0.0
26/07:30pm 6.4 5.0 5.3 93 0.5 SSE 2 7 1 4 - - 0.0
26/07:00pm 8.0 6.3 6.0 87 0.9 NW 4 9 2 5 - - 0.0
26/06:30pm 8.9 7.3 6.3 84 1.2 WNW 4 7 2 4 - - 0.0
26/06:00pm 10.3 9.1 6.5 77 1.8 N 2 7 1 4 - - 0.0
26/05:30pm 10.8 8.8 7.3 79 1.7 W 7 11 4 6 - - 0.0
26/05:00pm 11.9 9.8 6.5 69 2.6 SW 7 11 4 6 - - 0.0
26/04:30pm 12.5 9.7 6.9 68 2.7 SW 11 13 6 7 - - 0.0
26/04:00pm 14.0 10.6 6.1 59 3.8 SSW 13 17 7 9 - - 0.0
26/03:30pm 15.0 13.0 6.4 56 4.2 SSW 6 9 3 5 - - 0.0
26/03:00pm 14.7 11.9 7.0 60 3.8 SW 11 13 6 7 - - 0.0
26/02:30pm 14.8 12.4 6.9 59 3.9 SW 9 17 5 9 - - 0.0
26/02:00pm 15.8 12.9 6.7 54 4.5 SW 11 19 6 10 - - 0.0
26/01:30pm 15.4 13.0 6.9 57 4.2 S 9 17 5 9 - - 0.0
26/01:00pm 15.4 13.1 7.6 59 3.9 S 9 9 5 5 - - 0.0
26/12:30pm 15.4 13.7 7.4 59 4.0 N 6 9 3 5 - - 0.0

Other Formats:

Comma delimited format used in spreadsheet applications
http://www.bom.gov.au/fwo/IDT60801/IDT60801.94964.axf

JavaScript Object Notation format (JSON) in row-major order
http://www.bom.gov.au/fwo/IDT60801/IDT60801.94964.json